Etusivu
METAR-TAF:

METAR-TAF

Lentoasemat :

Sørkjosen, Norja

Leveyspiiri: 69-47N, Pituuspiiri: 020-58E, korkeus merenpinnasta: 0 m

Tämänhetkinen sää

Tämä raportti tehtiin 4 tuntia ja 31 minuuttia sitten, kello 19.50 UTC
Tuuli 4 kn lännestä
Lämpötila 10°C
Kosteus 76%
Ilmanpaine 1012 hPa
Näkyvyys 10 km tai enemmän
Muutamia pilviä 2500 ft:n korkeudessa

METAR: ENSR 281950Z VRB02KT 9999 FEW025 10/06 Q1012 WIND 1119FT 28004KT

Aika: 02:21 (00:21 UTC)


TAF: puuttuu

Säähavainnot ja -ennusteet yli 4000 lentoasemalta (METAR- ja TAF-raportit).

Käytössä olevat sääasemat on merkitty karttaan keltaisilla ja punaisilla pisteillä.

Aseta hiiri pisteen päälle nähdäksesi sääaseman nimen.

Klikkaa sitten nähdäksesi säähavainnot ja -ennusteet.

Kartan vaihtaminen: klikkaa mustalla rastilla varustettuja vihreitä pisteitä, niin voit zoomata sisään; viivalla varustettua vihreää pistettä, niin voit zoomata ulos tai vihreitä nuolia, niin pääset viereisille kartoille.


METAR-TAF: